sensor_id;sensor_type;location;lat;lon;timestamp;temperature;humidity
16829;DHT22;8531;48.078;11.968;2023-05-20T00:02:07;12.40;99.90
16829;DHT22;8531;48.078;11.968;2023-05-20T00:04:33;12.50;99.90
16829;DHT22;8531;48.078;11.968;2023-05-20T00:06:58;12.40;99.90
16829;DHT22;8531;48.078;11.968;2023-05-20T00:09:24;12.40;99.90
16829;DHT22;8531;48.078;11.968;2023-05-20T00:11:50;12.40;99.90
16829;DHT22;8531;48.078;11.968;2023-05-20T00:14:15;12.40;99.90
16829;DHT22;8531;48.078;11.968;2023-05-20T00:16:41;12.40;99.90
16829;DHT22;8531;48.078;11.968;2023-05-20T00:19:07;12.40;99.90
16829;DHT22;8531;48.078;11.968;2023-05-20T00:21:33;12.40;99.90
16829;DHT22;8531;48.078;11.968;2023-05-20T00:23:59;12.40;99.90
16829;DHT22;8531;48.078;11.968;2023-05-20T00:26:25;12.40;99.90
16829;DHT22;8531;48.078;11.968;2023-05-20T00:28:51;12.40;99.90
16829;DHT22;8531;48.078;11.968;2023-05-20T00:31:16;12.40;99.90
16829;DHT22;8531;48.078;11.968;2023-05-20T00:33:42;12.40;99.90
16829;DHT22;8531;48.078;11.968;2023-05-20T00:36:08;12.40;99.90
16829;DHT22;8531;48.078;11.968;2023-05-20T00:38:33;12.40;99.90
16829;DHT22;8531;48.078;11.968;2023-05-20T00:40:59;12.40;99.90
16829;DHT22;8531;48.078;11.968;2023-05-20T00:43:25;12.40;99.90
16829;DHT22;8531;48.078;11.968;2023-05-20T00:45:54;12.40;99.90
16829;DHT22;8531;48.078;11.968;2023-05-20T00:48:20;12.40;99.90
16829;DHT22;8531;48.078;11.968;2023-05-20T00:50:47;12.40;99.90
16829;DHT22;8531;48.078;11.968;2023-05-20T00:53:16;12.40;99.90
16829;DHT22;8531;48.078;11.968;2023-05-20T00:55:43;12.30;99.90
16829;DHT22;8531;48.078;11.968;2023-05-20T00:58:09;12.30;99.90
16829;DHT22;8531;48.078;11.968;2023-05-20T01:00:35;12.30;99.90
16829;DHT22;8531;48.078;11.968;2023-05-20T01:03:00;12.30;99.90
16829;DHT22;8531;48.078;11.968;2023-05-20T01:05:26;12.30;99.90
16829;DHT22;8531;48.078;11.968;2023-05-20T01:07:52;12.20;99.90
16829;DHT22;8531;48.078;11.968;2023-05-20T01:10:18;12.20;99.90
16829;DHT22;8531;48.078;11.968;2023-05-20T01:12:48;12.20;99.90
16829;DHT22;8531;48.078;11.968;2023-05-20T01:15:15;12.20;99.90
16829;DHT22;8531;48.078;11.968;2023-05-20T01:17:49;12.20;99.90
16829;DHT22;8531;48.078;11.968;2023-05-20T01:20:16;12.20;99.90
16829;DHT22;8531;48.078;11.968;2023-05-20T01:22:47;12.10;99.90
16829;DHT22;8531;48.078;11.968;2023-05-20T01:25:13;12.10;99.90
16829;DHT22;8531;48.078;11.968;2023-05-20T01:27:38;12.10;99.90
16829;DHT22;8531;48.078;11.968;2023-05-20T01:30:05;12.10;99.90
16829;DHT22;8531;48.078;11.968;2023-05-20T01:32:37;12.10;99.90
16829;DHT22;8531;48.078;11.968;2023-05-20T01:35:03;12.00;99.90
16829;DHT22;8531;48.078;11.968;2023-05-20T01:37:30;12.00;99.90
16829;DHT22;8531;48.078;11.968;2023-05-20T01:39:57;11.90;99.90
16829;DHT22;8531;48.078;11.968;2023-05-20T01:42:25;11.90;99.90
16829;DHT22;8531;48.078;11.968;2023-05-20T01:44:52;12.00;99.90
16829;DHT22;8531;48.078;11.968;2023-05-20T01:47:18;11.90;99.90
16829;DHT22;8531;48.078;11.968;2023-05-20T01:49:43;11.90;99.90
16829;DHT22;8531;48.078;11.968;2023-05-20T01:52:11;11.90;99.90
16829;DHT22;8531;48.078;11.968;2023-05-20T01:54:36;11.90;99.90
16829;DHT22;8531;48.078;11.968;2023-05-20T01:57:02;11.90;99.90
16829;DHT22;8531;48.078;11.968;2023-05-20T01:59:28;11.90;99.90
16829;DHT22;8531;48.078;11.968;2023-05-20T02:01:54;11.90;99.90
16829;DHT22;8531;48.078;11.968;2023-05-20T02:04:19;11.80;99.90
16829;DHT22;8531;48.078;11.968;2023-05-20T02:06:46;11.80;99.90
16829;DHT22;8531;48.078;11.968;2023-05-20T02:09:12;11.80;99.90
16829;DHT22;8531;48.078;11.968;2023-05-20T02:11:38;11.80;99.90
16829;DHT22;8531;48.078;11.968;2023-05-20T02:14:04;11.70;99.90
16829;DHT22;8531;48.078;11.968;2023-05-20T02:16:30;11.70;99.90
16829;DHT22;8531;48.078;11.968;2023-05-20T02:18:55;11.70;99.90
16829;DHT22;8531;48.078;11.968;2023-05-20T02:21:23;11.70;99.90
16829;DHT22;8531;48.078;11.968;2023-05-20T02:23:50;11.70;99.90
16829;DHT22;8531;48.078;11.968;2023-05-20T02:26:16;11.70;99.90
16829;DHT22;8531;48.078;11.968;2023-05-20T02:28:41;11.70;99.90
16829;DHT22;8531;48.078;11.968;2023-05-20T02:31:14;11.60;99.90
16829;DHT22;8531;48.078;11.968;2023-05-20T02:33:40;11.60;99.90
16829;DHT22;8531;48.078;11.968;2023-05-20T02:36:06;11.60;99.90
16829;DHT22;8531;48.078;11.968;2023-05-20T02:38:32;11.60;99.90
16829;DHT22;8531;48.078;11.968;2023-05-20T02:40:57;11.50;99.90
16829;DHT22;8531;48.078;11.968;2023-05-20T02:43:24;11.60;99.90
16829;DHT22;8531;48.078;11.968;2023-05-20T02:45:50;11.60;99.90
16829;DHT22;8531;48.078;11.968;2023-05-20T02:48:16;11.60;99.90
16829;DHT22;8531;48.078;11.968;2023-05-20T02:50:42;11.50;99.90
16829;DHT22;8531;48.078;11.968;2023-05-20T02:53:08;11.50;99.90
16829;DHT22;8531;48.078;11.968;2023-05-20T02:55:34;11.50;99.90
16829;DHT22;8531;48.078;11.968;2023-05-20T02:58:00;11.50;99.90
16829;DHT22;8531;48.078;11.968;2023-05-20T03:00:26;11.40;99.90
16829;DHT22;8531;48.078;11.968;2023-05-20T03:02:54;11.40;99.90
16829;DHT22;8531;48.078;11.968;2023-05-20T03:05:20;11.40;99.90
16829;DHT22;8531;48.078;11.968;2023-05-20T03:07:47;11.50;99.90
16829;DHT22;8531;48.078;11.968;2023-05-20T03:10:13;11.40;99.90
16829;DHT22;8531;48.078;11.968;2023-05-20T03:12:39;11.50;99.90
16829;DHT22;8531;48.078;11.968;2023-05-20T03:15:05;11.50;99.90
16829;DHT22;8531;48.078;11.968;2023-05-20T03:17:31;11.50;99.90
16829;DHT22;8531;48.078;11.968;2023-05-20T03:19:56;11.60;99.90
16829;DHT22;8531;48.078;11.968;2023-05-20T03:22:22;11.60;99.90
16829;DHT22;8531;48.078;11.968;2023-05-20T03:24:48;11.60;99.90
16829;DHT22;8531;48.078;11.968;2023-05-20T03:27:13;11.50;99.90
16829;DHT22;8531;48.078;11.968;2023-05-20T03:29:39;11.50;99.90
16829;DHT22;8531;48.078;11.968;2023-05-20T03:32:05;11.40;99.90
16829;DHT22;8531;48.078;11.968;2023-05-20T03:34:30;11.40;99.90
16829;DHT22;8531;48.078;11.968;2023-05-20T03:36:56;11.50;99.90
16829;DHT22;8531;48.078;11.968;2023-05-20T03:39:22;11.40;99.90
16829;DHT22;8531;48.078;11.968;2023-05-20T03:41:48;11.40;99.90
16829;DHT22;8531;48.078;11.968;2023-05-20T03:44:14;11.40;99.90
16829;DHT22;8531;48.078;11.968;2023-05-20T03:46:40;11.40;99.90
16829;DHT22;8531;48.078;11.968;2023-05-20T03:49:06;11.40;99.90
16829;DHT22;8531;48.078;11.968;2023-05-20T03:51:31;11.40;99.90
16829;DHT22;8531;48.078;11.968;2023-05-20T03:53:57;11.40;99.90
16829;DHT22;8531;48.078;11.968;2023-05-20T03:56:22;11.40;99.90
16829;DHT22;8531;48.078;11.968;2023-05-20T03:58:48;11.30;99.90
16829;DHT22;8531;48.078;11.968;2023-05-20T04:01:14;11.30;99.90
16829;DHT22;8531;48.078;11.968;2023-05-20T04:03:40;11.30;99.90
16829;DHT22;8531;48.078;11.968;2023-05-20T04:06:09;11.30;99.90
16829;DHT22;8531;48.078;11.968;2023-05-20T04:08:34;11.30;99.90
16829;DHT22;8531;48.078;11.968;2023-05-20T04:11:01;11.20;99.90
16829;DHT22;8531;48.078;11.968;2023-05-20T04:13:27;11.20;99.90
16829;DHT22;8531;48.078;11.968;2023-05-20T04:15:53;11.30;99.90
16829;DHT22;8531;48.078;11.968;2023-05-20T04:18:19;11.30;99.90
16829;DHT22;8531;48.078;11.968;2023-05-20T04:20:45;11.30;99.90
16829;DHT22;8531;48.078;11.968;2023-05-20T04:23:11;11.40;99.90
16829;DHT22;8531;48.078;11.968;2023-05-20T04:25:37;11.40;99.90
16829;DHT22;8531;48.078;11.968;2023-05-20T04:28:03;11.40;99.90
16829;DHT22;8531;48.078;11.968;2023-05-20T04:30:29;11.40;99.90
16829;DHT22;8531;48.078;11.968;2023-05-20T04:32:58;11.30;99.90
16829;DHT22;8531;48.078;11.968;2023-05-20T04:35:23;11.40;99.90
16829;DHT22;8531;48.078;11.968;2023-05-20T04:37:50;11.30;99.90
16829;DHT22;8531;48.078;11.968;2023-05-20T04:40:18;11.30;99.90
16829;DHT22;8531;48.078;11.968;2023-05-20T04:42:44;11.30;99.90
16829;DHT22;8531;48.078;11.968;2023-05-20T04:45:10;11.20;99.90
16829;DHT22;8531;48.078;11.968;2023-05-20T04:47:37;11.30;99.90
16829;DHT22;8531;48.078;11.968;2023-05-20T04:50:09;11.30;99.90
16829;DHT22;8531;48.078;11.968;2023-05-20T04:52:38;11.30;99.90
16829;DHT22;8531;48.078;11.968;2023-05-20T04:55:06;11.30;99.90
16829;DHT22;8531;48.078;11.968;2023-05-20T04:57:34;11.40;99.90
16829;DHT22;8531;48.078;11.968;2023-05-20T05:00:00;11.40;99.90
16829;DHT22;8531;48.078;11.968;2023-05-20T05:02:26;11.50;99.90
16829;DHT22;8531;48.078;11.968;2023-05-20T05:04:52;11.50;99.90
16829;DHT22;8531;48.078;11.968;2023-05-20T05:07:17;11.60;99.90
16829;DHT22;8531;48.078;11.968;2023-05-20T05:09:43;11.50;99.90
16829;DHT22;8531;48.078;11.968;2023-05-20T05:12:09;11.50;99.90
16829;DHT22;8531;48.078;11.968;2023-05-20T05:14:34;11.60;99.90
16829;DHT22;8531;48.078;11.968;2023-05-20T05:17:00;11.60;99.90
16829;DHT22;8531;48.078;11.968;2023-05-20T05:19:26;11.60;99.90
16829;DHT22;8531;48.078;11.968;2023-05-20T05:21:52;11.70;99.90
16829;DHT22;8531;48.078;11.968;2023-05-20T05:24:17;11.80;99.90
16829;DHT22;8531;48.078;11.968;2023-05-20T05:26:43;11.80;99.90
16829;DHT22;8531;48.078;11.968;2023-05-20T05:29:08;11.80;99.90
16829;DHT22;8531;48.078;11.968;2023-05-20T05:31:34;11.80;99.90
16829;DHT22;8531;48.078;11.968;2023-05-20T05:34:00;11.70;99.90
16829;DHT22;8531;48.078;11.968;2023-05-20T05:36:25;11.80;99.90
16829;DHT22;8531;48.078;11.968;2023-05-20T05:38:51;11.90;99.90
16829;DHT22;8531;48.078;11.968;2023-05-20T05:41:17;12.00;99.90
16829;DHT22;8531;48.078;11.968;2023-05-20T05:43:42;12.00;99.90
16829;DHT22;8531;48.078;11.968;2023-05-20T05:46:08;12.00;99.90
16829;DHT22;8531;48.078;11.968;2023-05-20T05:48:35;12.00;99.90
16829;DHT22;8531;48.078;11.968;2023-05-20T05:51:01;12.10;99.90
16829;DHT22;8531;48.078;11.968;2023-05-20T05:53:27;12.10;99.90
16829;DHT22;8531;48.078;11.968;2023-05-20T05:55:52;12.10;99.90
16829;DHT22;8531;48.078;11.968;2023-05-20T05:58:18;12.20;99.90
16829;DHT22;8531;48.078;11.968;2023-05-20T06:00:44;12.20;99.90
16829;DHT22;8531;48.078;11.968;2023-05-20T06:03:09;12.30;99.90
16829;DHT22;8531;48.078;11.968;2023-05-20T06:05:35;12.30;99.90
16829;DHT22;8531;48.078;11.968;2023-05-20T06:08:01;12.40;99.90
16829;DHT22;8531;48.078;11.968;2023-05-20T06:10:27;12.40;99.90
16829;DHT22;8531;48.078;11.968;2023-05-20T06:12:52;12.60;99.90
16829;DHT22;8531;48.078;11.968;2023-05-20T06:15:18;12.60;99.90
16829;DHT22;8531;48.078;11.968;2023-05-20T06:17:44;12.70;99.90
16829;DHT22;8531;48.078;11.968;2023-05-20T06:20:10;12.80;99.90
16829;DHT22;8531;48.078;11.968;2023-05-20T06:22:36;12.90;99.90
16829;DHT22;8531;48.078;11.968;2023-05-20T06:25:01;13.00;99.90
16829;DHT22;8531;48.078;11.968;2023-05-20T06:27:27;13.20;99.90
16829;DHT22;8531;48.078;11.968;2023-05-20T06:29:53;13.30;99.90
16829;DHT22;8531;48.078;11.968;2023-05-20T06:32:18;13.50;99.90
16829;DHT22;8531;48.078;11.968;2023-05-20T06:34:44;13.40;99.90
16829;DHT22;8531;48.078;11.968;2023-05-20T06:37:10;13.30;99.90
16829;DHT22;8531;48.078;11.968;2023-05-20T06:39:36;13.30;99.90
16829;DHT22;8531;48.078;11.968;2023-05-20T06:42:02;13.60;99.90
16829;DHT22;8531;48.078;11.968;2023-05-20T06:44:29;13.80;99.90
16829;DHT22;8531;48.078;11.968;2023-05-20T06:46:55;13.70;99.90
16829;DHT22;8531;48.078;11.968;2023-05-20T06:49:21;13.90;99.90
16829;DHT22;8531;48.078;11.968;2023-05-20T06:51:48;13.90;99.90
16829;DHT22;8531;48.078;11.968;2023-05-20T06:54:14;14.00;99.90
16829;DHT22;8531;48.078;11.968;2023-05-20T06:56:39;14.10;99.90
16829;DHT22;8531;48.078;11.968;2023-05-20T06:59:05;14.20;99.90
16829;DHT22;8531;48.078;11.968;2023-05-20T07:01:30;14.20;99.90
16829;DHT22;8531;48.078;11.968;2023-05-20T07:03:56;14.30;99.90
16829;DHT22;8531;48.078;11.968;2023-05-20T07:06:22;14.30;99.90
16829;DHT22;8531;48.078;11.968;2023-05-20T07:08:48;14.30;99.90
16829;DHT22;8531;48.078;11.968;2023-05-20T07:11:13;14.10;99.90
16829;DHT22;8531;48.078;11.968;2023-05-20T07:13:39;14.20;99.90
16829;DHT22;8531;48.078;11.968;2023-05-20T07:16:05;14.20;99.90
16829;DHT22;8531;48.078;11.968;2023-05-20T07:18:31;14.30;99.90
16829;DHT22;8531;48.078;11.968;2023-05-20T07:20:56;14.40;99.90
16829;DHT22;8531;48.078;11.968;2023-05-20T07:23:23;14.50;99.90
16829;DHT22;8531;48.078;11.968;2023-05-20T07:25:48;14.70;99.90
16829;DHT22;8531;48.078;11.968;2023-05-20T07:28:19;14.70;99.90
16829;DHT22;8531;48.078;11.968;2023-05-20T07:30:45;14.80;99.90
16829;DHT22;8531;48.078;11.968;2023-05-20T07:33:15;14.90;99.90
16829;DHT22;8531;48.078;11.968;2023-05-20T07:35:42;15.20;99.90
16829;DHT22;8531;48.078;11.968;2023-05-20T07:38:08;15.40;99.90
16829;DHT22;8531;48.078;11.968;2023-05-20T07:40:33;15.50;99.90
16829;DHT22;8531;48.078;11.968;2023-05-20T07:43:01;15.80;99.90
16829;DHT22;8531;48.078;11.968;2023-05-20T07:45:26;15.90;99.90
16829;DHT22;8531;48.078;11.968;2023-05-20T07:47:52;16.20;99.90
16829;DHT22;8531;48.078;11.968;2023-05-20T07:50:18;16.20;99.90
16829;DHT22;8531;48.078;11.968;2023-05-20T07:52:44;16.30;99.90
16829;DHT22;8531;48.078;11.968;2023-05-20T07:55:09;16.60;99.90
16829;DHT22;8531;48.078;11.968;2023-05-20T07:57:35;16.50;99.90
16829;DHT22;8531;48.078;11.968;2023-05-20T08:00:01;16.60;99.90
16829;DHT22;8531;48.078;11.968;2023-05-20T08:02:27;16.50;99.90
16829;DHT22;8531;48.078;11.968;2023-05-20T08:04:52;16.30;99.90
16829;DHT22;8531;48.078;11.968;2023-05-20T08:07:18;16.40;99.90
16829;DHT22;8531;48.078;11.968;2023-05-20T08:09:44;16.50;99.90
16829;DHT22;8531;48.078;11.968;2023-05-20T08:12:10;16.60;99.90
16829;DHT22;8531;48.078;11.968;2023-05-20T08:14:37;16.70;99.90
16829;DHT22;8531;48.078;11.968;2023-05-20T08:17:02;16.70;99.90
16829;DHT22;8531;48.078;11.968;2023-05-20T08:19:28;16.80;99.90
16829;DHT22;8531;48.078;11.968;2023-05-20T08:21:54;16.80;99.90
16829;DHT22;8531;48.078;11.968;2023-05-20T08:24:19;17.00;99.90
16829;DHT22;8531;48.078;11.968;2023-05-20T08:26:45;17.10;99.90
16829;DHT22;8531;48.078;11.968;2023-05-20T08:29:11;17.30;99.90
16829;DHT22;8531;48.078;11.968;2023-05-20T08:31:36;17.60;99.90
16829;DHT22;8531;48.078;11.968;2023-05-20T08:34:02;17.70;99.90
16829;DHT22;8531;48.078;11.968;2023-05-20T08:36:28;17.50;99.90
16829;DHT22;8531;48.078;11.968;2023-05-20T08:38:54;17.60;99.90
16829;DHT22;8531;48.078;11.968;2023-05-20T08:41:20;17.50;99.90
16829;DHT22;8531;48.078;11.968;2023-05-20T08:43:48;17.60;99.90
16829;DHT22;8531;48.078;11.968;2023-05-20T08:46:15;17.70;99.90
16829;DHT22;8531;48.078;11.968;2023-05-20T08:48:41;17.70;99.90
16829;DHT22;8531;48.078;11.968;2023-05-20T08:51:08;17.80;99.90
16829;DHT22;8531;48.078;11.968;2023-05-20T08:53:35;17.60;99.90
16829;DHT22;8531;48.078;11.968;2023-05-20T08:56:01;17.60;99.90
16829;DHT22;8531;48.078;11.968;2023-05-20T08:58:31;17.90;99.90
16829;DHT22;8531;48.078;11.968;2023-05-20T09:01:00;18.40;99.90
16829;DHT22;8531;48.078;11.968;2023-05-20T09:03:26;18.60;99.90
16829;DHT22;8531;48.078;11.968;2023-05-20T09:05:53;18.70;99.90
16829;DHT22;8531;48.078;11.968;2023-05-20T09:08:23;18.80;99.90
16829;DHT22;8531;48.078;11.968;2023-05-20T09:10:51;18.70;99.90
16829;DHT22;8531;48.078;11.968;2023-05-20T09:13:17;18.70;99.90
16829;DHT22;8531;48.078;11.968;2023-05-20T09:15:43;19.10;99.90
16829;DHT22;8531;48.078;11.968;2023-05-20T09:18:08;19.30;99.90
16829;DHT22;8531;48.078;11.968;2023-05-20T09:20:36;19.30;99.90
16829;DHT22;8531;48.078;11.968;2023-05-20T09:23:03;19.50;99.90
16829;DHT22;8531;48.078;11.968;2023-05-20T09:25:29;19.80;99.90
16829;DHT22;8531;48.078;11.968;2023-05-20T09:27:55;19.90;99.90
16829;DHT22;8531;48.078;11.968;2023-05-20T09:30:22;19.70;99.90
16829;DHT22;8531;48.078;11.968;2023-05-20T09:32:55;19.80;99.90
16829;DHT22;8531;48.078;11.968;2023-05-20T09:35:21;19.80;99.90
16829;DHT22;8531;48.078;11.968;2023-05-20T09:37:53;19.60;99.90
16829;DHT22;8531;48.078;11.968;2023-05-20T09:40:23;19.60;99.90
16829;DHT22;8531;48.078;11.968;2023-05-20T09:42:53;19.30;99.90
16829;DHT22;8531;48.078;11.968;2023-05-20T09:45:21;19.10;99.90
16829;DHT22;8531;48.078;11.968;2023-05-20T09:47:50;19.00;99.90
16829;DHT22;8531;48.078;11.968;2023-05-20T09:50:16;19.10;99.90
16829;DHT22;8531;48.078;11.968;2023-05-20T09:52:49;19.10;99.90
16829;DHT22;8531;48.078;11.968;2023-05-20T09:55:20;19.20;99.90
16829;DHT22;8531;48.078;11.968;2023-05-20T09:57:46;19.50;99.90
16829;DHT22;8531;48.078;11.968;2023-05-20T10:00:14;19.70;99.90
16829;DHT22;8531;48.078;11.968;2023-05-20T10:02:51;19.80;99.90
16829;DHT22;8531;48.078;11.968;2023-05-20T10:05:23;20.00;99.90
16829;DHT22;8531;48.078;11.968;2023-05-20T10:13:44;20.30;99.90
16829;DHT22;8531;48.078;11.968;2023-05-20T10:21:35;20.60;99.90
16829;DHT22;8531;48.078;11.968;2023-05-20T10:24:08;20.70;99.90
16829;DHT22;8531;48.078;11.968;2023-05-20T10:26:39;20.90;99.90
16829;DHT22;8531;48.078;11.968;2023-05-20T10:29:18;21.10;99.90
16829;DHT22;8531;48.078;11.968;2023-05-20T10:31:51;21.30;99.90
16829;DHT22;8531;48.078;11.968;2023-05-20T10:34:21;21.70;99.90
16829;DHT22;8531;48.078;11.968;2023-05-20T10:39:25;22.50;99.90
16829;DHT22;8531;48.078;11.968;2023-05-20T10:41:51;22.90;99.90
16829;DHT22;8531;48.078;11.968;2023-05-20T10:44:17;22.90;99.90
16829;DHT22;8531;48.078;11.968;2023-05-20T10:46:42;22.60;99.90
16829;DHT22;8531;48.078;11.968;2023-05-20T10:49:18;22.30;99.90
16829;DHT22;8531;48.078;11.968;2023-05-20T10:51:45;21.90;99.90
16829;DHT22;8531;48.078;11.968;2023-05-20T10:54:12;22.10;99.90
16829;DHT22;8531;48.078;11.968;2023-05-20T10:56:39;22.50;99.90
16829;DHT22;8531;48.078;11.968;2023-05-20T10:59:15;22.60;99.90
16829;DHT22;8531;48.078;11.968;2023-05-20T11:01:41;22.70;99.90
16829;DHT22;8531;48.078;11.968;2023-05-20T11:04:07;22.70;99.90
16829;DHT22;8531;48.078;11.968;2023-05-20T11:06:33;23.00;99.90
16829;DHT22;8531;48.078;11.968;2023-05-20T11:09:05;23.00;99.90
16829;DHT22;8531;48.078;11.968;2023-05-20T11:11:31;23.10;99.90
16829;DHT22;8531;48.078;11.968;2023-05-20T11:13:57;23.60;99.90
16829;DHT22;8531;48.078;11.968;2023-05-20T11:16:25;23.40;99.90
16829;DHT22;8531;48.078;11.968;2023-05-20T11:18:50;23.00;99.90
16829;DHT22;8531;48.078;11.968;2023-05-20T11:21:17;23.60;99.90
16829;DHT22;8531;48.078;11.968;2023-05-20T11:23:44;23.80;99.90
16829;DHT22;8531;48.078;11.968;2023-05-20T11:26:10;23.50;99.90
16829;DHT22;8531;48.078;11.968;2023-05-20T11:28:36;23.30;99.90
16829;DHT22;8531;48.078;11.968;2023-05-20T11:31:04;23.50;99.90
16829;DHT22;8531;48.078;11.968;2023-05-20T11:33:29;23.50;99.90
16829;DHT22;8531;48.078;11.968;2023-05-20T11:35:55;23.20;99.90
16829;DHT22;8531;48.078;11.968;2023-05-20T11:38:22;23.10;99.90
16829;DHT22;8531;48.078;11.968;2023-05-20T11:40:53;23.00;99.90
16829;DHT22;8531;48.078;11.968;2023-05-20T11:43:20;22.90;99.90
16829;DHT22;8531;48.078;11.968;2023-05-20T11:45:51;22.90;99.90
16829;DHT22;8531;48.078;11.968;2023-05-20T11:48:18;23.20;99.90
16829;DHT22;8531;48.078;11.968;2023-05-20T11:50:45;23.50;99.90
16829;DHT22;8531;48.078;11.968;2023-05-20T11:53:17;23.40;99.90
16829;DHT22;8531;48.078;11.968;2023-05-20T11:58:29;23.20;99.90
16829;DHT22;8531;48.078;11.968;2023-05-20T12:00:55;23.40;99.90
16829;DHT22;8531;48.078;11.968;2023-05-20T12:03:21;23.20;99.90
16829;DHT22;8531;48.078;11.968;2023-05-20T12:05:47;22.80;99.90
16829;DHT22;8531;48.078;11.968;2023-05-20T12:08:13;22.70;99.90
16829;DHT22;8531;48.078;11.968;2023-05-20T12:10:39;22.70;99.90
16829;DHT22;8531;48.078;11.968;2023-05-20T12:13:05;22.50;99.90
16829;DHT22;8531;48.078;11.968;2023-05-20T12:15:36;22.70;99.90
16829;DHT22;8531;48.078;11.968;2023-05-20T12:18:02;22.60;99.90
16829;DHT22;8531;48.078;11.968;2023-05-20T12:20:28;22.30;99.90
16829;DHT22;8531;48.078;11.968;2023-05-20T12:22:55;22.10;99.90
16829;DHT22;8531;48.078;11.968;2023-05-20T12:25:20;22.40;99.90
16829;DHT22;8531;48.078;11.968;2023-05-20T12:27:47;22.40;99.90
16829;DHT22;8531;48.078;11.968;2023-05-20T12:30:18;22.20;99.90
16829;DHT22;8531;48.078;11.968;2023-05-20T12:32:45;22.20;99.90
16829;DHT22;8531;48.078;11.968;2023-05-20T12:35:11;22.10;99.90
16829;DHT22;8531;48.078;11.968;2023-05-20T12:37:40;22.40;99.90
16829;DHT22;8531;48.078;11.968;2023-05-20T12:40:07;22.70;99.90
16829;DHT22;8531;48.078;11.968;2023-05-20T12:42:40;23.00;99.90
16829;DHT22;8531;48.078;11.968;2023-05-20T12:45:07;23.40;99.90
16829;DHT22;8531;48.078;11.968;2023-05-20T12:47:35;23.50;99.90
16829;DHT22;8531;48.078;11.968;2023-05-20T12:50:01;23.40;99.90
16829;DHT22;8531;48.078;11.968;2023-05-20T12:52:28;23.50;99.90
16829;DHT22;8531;48.078;11.968;2023-05-20T12:54:54;23.60;99.90
16829;DHT22;8531;48.078;11.968;2023-05-20T12:57:20;23.90;99.90
16829;DHT22;8531;48.078;11.968;2023-05-20T12:59:46;23.60;99.90
16829;DHT22;8531;48.078;11.968;2023-05-20T13:02:12;23.70;99.90
16829;DHT22;8531;48.078;11.968;2023-05-20T13:04:37;23.80;99.90
16829;DHT22;8531;48.078;11.968;2023-05-20T13:07:03;23.70;99.90
16829;DHT22;8531;48.078;11.968;2023-05-20T13:09:29;23.70;99.90
16829;DHT22;8531;48.078;11.968;2023-05-20T13:11:55;23.80;99.90
16829;DHT22;8531;48.078;11.968;2023-05-20T13:14:21;23.80;99.90
16829;DHT22;8531;48.078;11.968;2023-05-20T13:16:48;23.50;99.90
16829;DHT22;8531;48.078;11.968;2023-05-20T13:19:13;23.40;99.90
16829;DHT22;8531;48.078;11.968;2023-05-20T13:21:39;23.40;99.90
16829;DHT22;8531;48.078;11.968;2023-05-20T13:24:05;23.10;99.90
16829;DHT22;8531;48.078;11.968;2023-05-20T13:26:31;23.10;99.90
16829;DHT22;8531;48.078;11.968;2023-05-20T13:28:57;23.00;99.90
16829;DHT22;8531;48.078;11.968;2023-05-20T13:31:23;22.90;99.90
16829;DHT22;8531;48.078;11.968;2023-05-20T13:33:48;22.90;99.90
16829;DHT22;8531;48.078;11.968;2023-05-20T13:36:14;22.80;99.90
16829;DHT22;8531;48.078;11.968;2023-05-20T13:38:40;22.90;99.90
16829;DHT22;8531;48.078;11.968;2023-05-20T13:41:05;22.90;99.90
16829;DHT22;8531;48.078;11.968;2023-05-20T13:43:31;23.10;99.90
16829;DHT22;8531;48.078;11.968;2023-05-20T13:45:57;23.10;99.90
16829;DHT22;8531;48.078;11.968;2023-05-20T13:48:23;23.00;99.90
16829;DHT22;8531;48.078;11.968;2023-05-20T13:50:49;23.10;99.90
16829;DHT22;8531;48.078;11.968;2023-05-20T13:53:14;23.10;99.90
16829;DHT22;8531;48.078;11.968;2023-05-20T13:55:40;23.20;99.90
16829;DHT22;8531;48.078;11.968;2023-05-20T13:58:06;23.20;99.90
16829;DHT22;8531;48.078;11.968;2023-05-20T14:00:37;23.10;99.90
16829;DHT22;8531;48.078;11.968;2023-05-20T14:03:03;23.10;99.90
16829;DHT22;8531;48.078;11.968;2023-05-20T14:05:32;22.80;99.90
16829;DHT22;8531;48.078;11.968;2023-05-20T14:07:58;23.00;99.90
16829;DHT22;8531;48.078;11.968;2023-05-20T14:10:24;22.90;99.90
16829;DHT22;8531;48.078;11.968;2023-05-20T14:12:51;22.90;99.90
16829;DHT22;8531;48.078;11.968;2023-05-20T14:15:17;22.80;99.90
16829;DHT22;8531;48.078;11.968;2023-05-20T14:17:43;22.90;99.90
16829;DHT22;8531;48.078;11.968;2023-05-20T14:20:09;22.90;99.90
16829;DHT22;8531;48.078;11.968;2023-05-20T14:22:34;23.00;99.90
16829;DHT22;8531;48.078;11.968;2023-05-20T14:25:00;23.10;99.90
16829;DHT22;8531;48.078;11.968;2023-05-20T14:27:26;23.20;99.90
16829;DHT22;8531;48.078;11.968;2023-05-20T14:29:52;23.10;99.90
16829;DHT22;8531;48.078;11.968;2023-05-20T14:32:18;23.00;99.90
16829;DHT22;8531;48.078;11.968;2023-05-20T14:34:43;22.90;99.90
16829;DHT22;8531;48.078;11.968;2023-05-20T14:37:09;22.80;99.90
16829;DHT22;8531;48.078;11.968;2023-05-20T14:39:36;22.90;99.90
16829;DHT22;8531;48.078;11.968;2023-05-20T14:42:02;23.00;99.90
16829;DHT22;8531;48.078;11.968;2023-05-20T14:44:29;22.90;99.90
16829;DHT22;8531;48.078;11.968;2023-05-20T14:46:55;22.90;99.90
16829;DHT22;8531;48.078;11.968;2023-05-20T14:49:20;22.80;99.90
16829;DHT22;8531;48.078;11.968;2023-05-20T14:51:46;22.60;99.90
16829;DHT22;8531;48.078;11.968;2023-05-20T14:54:12;22.40;99.90
16829;DHT22;8531;48.078;11.968;2023-05-20T14:56:39;22.50;99.90
16829;DHT22;8531;48.078;11.968;2023-05-20T14:59:05;22.40;99.90
16829;DHT22;8531;48.078;11.968;2023-05-20T15:01:32;22.70;99.90
16829;DHT22;8531;48.078;11.968;2023-05-20T15:03:58;22.70;99.90
16829;DHT22;8531;48.078;11.968;2023-05-20T15:06:24;22.40;99.90
16829;DHT22;8531;48.078;11.968;2023-05-20T15:08:49;22.40;99.90
16829;DHT22;8531;48.078;11.968;2023-05-20T15:11:15;22.60;99.90
16829;DHT22;8531;48.078;11.968;2023-05-20T15:13:41;22.60;99.90
16829;DHT22;8531;48.078;11.968;2023-05-20T15:16:06;22.70;99.90
16829;DHT22;8531;48.078;11.968;2023-05-20T15:18:32;22.70;99.90
16829;DHT22;8531;48.078;11.968;2023-05-20T15:20:58;22.80;99.90
16829;DHT22;8531;48.078;11.968;2023-05-20T15:23:26;23.00;99.90
16829;DHT22;8531;48.078;11.968;2023-05-20T15:25:52;22.70;99.90
16829;DHT22;8531;48.078;11.968;2023-05-20T15:28:18;22.90;99.90
16829;DHT22;8531;48.078;11.968;2023-05-20T15:30:53;23.00;99.90
16829;DHT22;8531;48.078;11.968;2023-05-20T15:33:18;22.80;99.90
16829;DHT22;8531;48.078;11.968;2023-05-20T15:35:45;22.60;99.90
16829;DHT22;8531;48.078;11.968;2023-05-20T15:38:10;22.60;99.90
16829;DHT22;8531;48.078;11.968;2023-05-20T15:40:36;22.30;99.90
16829;DHT22;8531;48.078;11.968;2023-05-20T15:43:02;22.20;99.90